Time;durP1;ratioP1;P1;durP2;ratioP2;P2;SDS_P1;SDS_P2;PMS_P1;PMS_P2;Temp;Humidity;BMP_temperature;BMP_pressure;BME280_temperature;BME280_humidity;BME280_pressure;Samples;Min_cycle;Max_cycle;Signal;HPM_P1;HPM_P2
2023/05/16 00:01:59;;;;;;;25.98;12.40;;;8.70;99.90;;;;;;5060129;28;20052;-73
2023/05/16 00:04:25;;;;;;;22.40;11.70;;;8.70;99.90;;;;;;5066180;28;20045;-73
2023/05/16 00:06:51;;;;;;;25.15;11.43;;;8.60;99.90;;;;;;5063471;28;20456;-73
2023/05/16 00:09:16;;;;;;;27.58;12.95;;;8.60;99.90;;;;;;5065434;28;20056;-73
2023/05/16 00:11:42;;;;;;;19.92;11.20;;;8.50;99.90;;;;;;5062283;28;20103;-74
2023/05/16 00:14:08;;;;;;;21.98;11.82;;;8.50;99.90;;;;;;5064477;28;20109;-73
2023/05/16 00:16:35;;;;;;;24.65;11.90;;;8.50;99.90;;;;;;5064253;28;20021;-74
2023/05/16 00:19:01;;;;;;;19.65;10.85;;;8.50;99.90;;;;;;5053688;28;20063;-73
2023/05/16 00:21:27;;;;;;;22.23;11.45;;;8.50;99.90;;;;;;5066970;28;20029;-73
2023/05/16 00:23:53;;;;;;;19.80;10.98;;;8.50;99.90;;;;;;5061692;28;20036;-72
2023/05/16 00:26:18;;;;;;;19.38;10.90;;;8.50;99.90;;;;;;5057260;28;20090;-74
2023/05/16 00:28:44;;;;;;;23.92;12.15;;;8.50;99.90;;;;;;5064629;28;20055;-73
2023/05/16 00:31:09;;;;;;;26.88;11.93;;;8.50;99.90;;;;;;5060526;28;20072;-72
2023/05/16 00:33:35;;;;;;;21.77;11.43;;;8.50;99.90;;;;;;5067071;28;20047;-72
2023/05/16 00:36:01;;;;;;;24.05;11.68;;;8.60;99.90;;;;;;5062168;28;20385;-73
2023/05/16 00:38:27;;;;;;;18.98;10.48;;;8.60;99.90;;;;;;5058256;28;20027;-72
2023/05/16 00:40:52;;;;;;;21.42;10.48;;;8.50;99.90;;;;;;5063599;28;20066;-74
2023/05/16 00:43:18;;;;;;;21.13;10.50;;;8.50;99.90;;;;;;5060930;28;20036;-73
2023/05/16 00:45:44;;;;;;;19.05;10.82;;;8.40;99.90;;;;;;5067808;28;20066;-73
2023/05/16 00:48:12;;;;;;;21.40;11.05;;;8.40;99.90;;;;;;5058084;28;20158;-73
2023/05/16 00:50:38;;;;;;;20.50;11.15;;;8.50;99.90;;;;;;5057154;28;20025;-73
2023/05/16 00:53:04;;;;;;;19.30;10.52;;;8.50;99.90;;;;;;5059188;28;20111;-73
2023/05/16 00:55:31;;;;;;;24.92;12.48;;;8.40;99.90;;;;;;5067792;28;20442;-73
2023/05/16 00:57:58;;;;;;;24.17;12.40;;;8.40;99.90;;;;;;5065540;28;20032;-73
2023/05/16 01:00:24;;;;;;;20.55;11.35;;;8.40;99.90;;;;;;5059308;28;20036;-73
2023/05/16 01:02:52;;;;;;;22.58;9.68;;;8.30;99.90;;;;;;5058363;28;20162;-70
2023/05/16 01:05:18;;;;;;;17.38;9.10;;;8.10;99.90;;;;;;5056944;28;20546;-73
2023/05/16 01:07:44;;;;;;;20.15;9.70;;;8.00;99.90;;;;;;5061722;28;20036;-72
2023/05/16 01:10:10;;;;;;;17.65;9.77;;;7.90;99.90;;;;;;5061087;28;20040;-73
2023/05/16 01:12:37;;;;;;;21.08;11.30;;;8.00;99.90;;;;;;5065821;28;20074;-73
2023/05/16 01:15:05;;;;;;;22.20;11.13;;;8.00;99.90;;;;;;5065735;28;20539;-74
2023/05/16 01:17:54;;;;;;;24.60;11.38;;;8.00;99.90;;;;;;5058691;28;20550;-72
2023/05/16 01:20:47;;;;;;;23.13;12.18;;;8.10;99.90;;;;;;5061370;28;20116;-74
2023/05/16 01:23:25;;;;;;;19.10;11.15;;;8.10;99.90;;;;;;5057300;28;20041;-73
2023/05/16 01:26:18;;;;;;;26.10;13.35;;;8.20;99.90;;;;;;5055998;28;21722;-71
2023/05/16 01:28:48;;;;;;;28.50;14.70;;;8.20;99.90;;;;;;5050942;28;20037;-73
2023/05/16 01:31:15;;;;;;;30.10;14.52;;;8.40;99.90;;;;;;5060946;28;20041;-73
2023/05/16 01:33:41;;;;;;;30.52;15.57;;;8.50;99.90;;;;;;5062691;28;20048;-73
2023/05/16 01:36:23;;;;;;;30.20;15.32;;;8.60;99.90;;;;;;5060185;28;20094;-73
2023/05/16 01:39:13;;;;;;;22.85;12.45;;;8.70;99.90;;;;;;5065792;28;20035;-71
2023/05/16 01:42:02;;;;;;;14.47;7.97;;;8.60;99.90;;;;;;5065553;28;20028;-73
2023/05/16 01:44:52;;;;;;;24.58;11.90;;;8.60;99.90;;;;;;5057970;28;20766;-73
2023/05/16 01:47:20;;;;;;;20.77;11.27;;;8.60;99.90;;;;;;5063793;28;20028;-72
2023/05/16 01:49:56;;;;;;;19.35;10.80;;;8.40;99.90;;;;;;5061509;28;20044;-74
2023/05/16 01:52:37;;;;;;;21.50;10.82;;;8.40;99.90;;;;;;5064500;28;20115;-73
2023/05/16 01:55:08;;;;;;;21.92;11.07;;;8.30;99.90;;;;;;5061044;28;20029;-72
2023/05/16 01:57:35;;;;;;;19.98;10.82;;;8.30;99.90;;;;;;5053070;28;20024;-73
2023/05/16 02:00:00;;;;;;;19.02;10.35;;;8.20;99.90;;;;;;5058918;28;20036;-73
2023/05/16 02:02:26;;;;;;;22.55;11.23;;;8.20;99.90;;;;;;5021866;28;1105103;-73
2023/05/16 02:04:52;;;;;;;25.70;11.20;;;8.30;99.90;;;;;;5060417;28;20120;-71
2023/05/16 02:07:18;;;;;;;20.38;10.50;;;8.20;99.90;;;;;;5063660;28;20128;-73
2023/05/16 02:09:43;;;;;;;22.95;11.07;;;8.20;99.90;;;;;;5054953;28;20078;-74
2023/05/16 02:12:09;;;;;;;21.77;11.07;;;8.30;99.90;;;;;;5067385;28;20025;-74
2023/05/16 02:14:34;;;;;;;21.65;12.05;;;8.40;99.90;;;;;;5057547;28;20032;-73
2023/05/16 02:17:00;;;;;;;20.10;11.05;;;8.30;99.90;;;;;;5065344;28;20040;-72
2023/05/16 02:19:26;;;;;;;29.08;13.15;;;8.30;99.90;;;;;;5064648;28;20059;-73
2023/05/16 02:21:51;;;;;;;27.70;13.38;;;8.30;99.90;;;;;;5060772;28;20060;-72
2023/05/16 02:24:17;;;;;;;23.63;12.63;;;8.40;99.90;;;;;;5063738;28;20432;-74
2023/05/16 02:26:42;;;;;;;24.70;12.23;;;8.50;99.90;;;;;;5058197;28;20565;-73
2023/05/16 02:29:08;;;;;;;27.38;13.07;;;8.50;99.90;;;;;;5067830;28;21754;-73
2023/05/16 02:31:35;;;;;;;19.25;11.18;;;8.50;99.90;;;;;;5064395;28;20074;-73
2023/05/16 02:34:01;;;;;;;18.75;10.80;;;8.40;99.90;;;;;;5066608;28;20046;-73
2023/05/16 02:36:27;;;;;;;24.15;12.07;;;8.40;99.90;;;;;;5062680;28;20036;-73
2023/05/16 02:38:52;;;;;;;18.20;10.05;;;8.30;99.90;;;;;;5062101;28;20079;-71
2023/05/16 02:41:21;;;;;;;20.58;10.52;;;8.20;99.90;;;;;;5069288;28;20032;-74
2023/05/16 02:43:47;;;;;;;21.45;11.10;;;8.20;99.90;;;;;;5062327;28;20028;-73
2023/05/16 02:46:20;;;;;;;27.40;12.55;;;8.10;99.90;;;;;;5067837;28;20539;-73
2023/05/16 02:48:45;;;;;;;26.90;12.30;;;8.30;99.90;;;;;;5070240;28;20460;-73
2023/05/16 02:51:11;;;;;;;23.05;11.70;;;8.30;99.90;;;;;;5059987;28;20056;-73
2023/05/16 02:53:37;;;;;;;25.70;13.98;;;8.30;99.90;;;;;;5056237;28;20538;-73
2023/05/16 02:56:05;;;;;;;26.05;13.75;;;8.30;99.90;;;;;;5061185;28;20063;-73
2023/05/16 02:58:31;;;;;;;31.38;14.43;;;8.30;99.90;;;;;;5059446;28;20477;-73
2023/05/16 03:00:57;;;;;;;29.35;13.68;;;8.40;99.90;;;;;;5058743;28;20075;-71
2023/05/16 03:03:23;;;;;;;26.20;12.90;;;8.40;99.90;;;;;;5057207;28;20065;-73
2023/05/16 03:05:49;;;;;;;24.88;12.15;;;8.30;99.90;;;;;;5060091;28;20032;-74
2023/05/16 03:08:14;;;;;;;25.30;12.65;;;8.20;99.90;;;;;;5067151;28;20039;-69
2023/05/16 03:10:40;;;;;;;25.65;12.90;;;8.20;99.90;;;;;;5064303;28;20086;-73
2023/05/16 03:13:06;;;;;;;24.65;12.80;;;8.20;99.90;;;;;;5063096;28;20036;-72
2023/05/16 03:15:31;;;;;;;25.70;13.05;;;8.20;99.90;;;;;;5062474;28;20078;-72
2023/05/16 03:17:57;;;;;;;26.30;13.68;;;8.20;99.90;;;;;;5069835;28;20082;-71
2023/05/16 03:20:22;;;;;;;25.73;13.45;;;8.20;99.90;;;;;;5066953;28;20029;-73
2023/05/16 03:22:48;;;;;;;29.80;13.43;;;8.20;99.90;;;;;;5051326;28;20437;-73
2023/05/16 03:25:14;;;;;;;26.23;12.55;;;8.10;99.90;;;;;;5063784;28;20041;-72
2023/05/16 03:27:39;;;;;;;30.13;14.25;;;8.10;99.90;;;;;;5063809;28;20071;-73
2023/05/16 03:30:06;;;;;;;33.60;16.13;;;8.10;99.90;;;;;;5068723;28;20036;-73
2023/05/16 03:32:32;;;;;;;37.30;18.25;;;8.10;99.90;;;;;;5068858;28;20036;-73
2023/05/16 03:34:57;;;;;;;40.25;18.42;;;8.10;99.90;;;;;;5067697;28;20028;-71
2023/05/16 03:37:23;;;;;;;46.75;20.70;;;8.20;99.90;;;;;;5061240;28;20036;-73
2023/05/16 03:39:49;;;;;;;34.80;17.08;;;8.30;99.90;;;;;;5062306;28;20028;-72
2023/05/16 03:42:17;;;;;;;35.95;16.63;;;8.30;99.90;;;;;;5061063;28;20036;-73
2023/05/16 03:44:43;;;;;;;26.98;14.23;;;8.30;99.90;;;;;;5067879;28;20365;-72
2023/05/16 03:47:08;;;;;;;28.90;13.45;;;8.20;99.90;;;;;;5068380;28;20037;-73
2023/05/16 03:49:35;;;;;;;31.17;15.30;;;8.10;99.90;;;;;;5061522;28;20032;-73
2023/05/16 03:52:02;;;;;;;37.97;18.00;;;8.10;99.90;;;;;;5069099;28;20381;-72
2023/05/16 03:54:27;;;;;;;32.92;15.90;;;8.00;99.90;;;;;;5068506;28;20044;-72
2023/05/16 03:56:53;;;;;;;28.20;14.55;;;8.00;99.90;;;;;;5061505;28;20029;-73
2023/05/16 03:59:18;;;;;;;23.95;10.60;;;7.90;99.90;;;;;;5064663;28;20051;-70
2023/05/16 04:01:44;;;;;;;19.65;10.73;;;7.90;99.90;;;;;;5042738;28;20684;-69
2023/05/16 04:04:09;;;;;;;20.40;10.73;;;7.80;99.90;;;;;;5068746;28;20050;-69
2023/05/16 04:06:35;;;;;;;27.27;14.40;;;7.80;99.90;;;;;;5065114;28;20029;-71
2023/05/16 04:09:01;;;;;;;30.70;15.20;;;7.90;99.90;;;;;;5058704;28;20477;-71
2023/05/16 04:11:27;;;;;;;27.67;14.07;;;7.90;99.90;;;;;;5057159;28;20047;-71
2023/05/16 04:13:53;;;;;;;32.30;14.02;;;8.00;99.90;;;;;;5061441;28;20047;-71
2023/05/16 04:16:18;;;;;;;32.90;15.52;;;8.00;99.90;;;;;;5067450;28;20024;-73
2023/05/16 04:18:45;;;;;;;30.40;15.15;;;8.00;99.90;;;;;;5053280;28;20048;-74
2023/05/16 04:21:13;;;;;;;36.15;16.30;;;8.10;99.90;;;;;;5060836;28;20153;-73
2023/05/16 04:23:40;;;;;;;22.83;11.85;;;8.10;99.90;;;;;;5065681;28;20495;-73
2023/05/16 04:26:05;;;;;;;19.73;9.80;;;8.00;99.90;;;;;;5060418;28;20032;-74
2023/05/16 04:28:31;;;;;;;16.00;8.77;;;7.90;99.90;;;;;;5059097;28;20490;-74
2023/05/16 04:30:57;;;;;;;19.38;9.65;;;7.90;99.90;;;;;;5060043;28;20051;-73
2023/05/16 04:33:23;;;;;;;23.42;12.32;;;7.90;99.90;;;;;;5053163;28;20193;-74
2023/05/16 04:35:48;;;;;;;24.98;13.05;;;7.90;99.90;;;;;;5065168;28;20025;-73
2023/05/16 04:38:15;;;;;;;41.53;15.57;;;7.90;99.90;;;;;;5061611;28;20039;-73
2023/05/16 04:40:40;;;;;;;42.40;20.10;;;8.00;99.90;;;;;;5057252;28;20426;-72
2023/05/16 04:43:07;;;;;;;47.47;23.05;;;8.20;99.90;;;;;;5056477;28;20159;-72
2023/05/16 04:45:32;;;;;;;53.42;25.48;;;8.50;99.90;;;;;;5060303;28;20037;-73
2023/05/16 04:47:58;;;;;;;51.15;24.08;;;8.60;99.90;;;;;;5060560;28;20070;-72
2023/05/16 04:50:23;;;;;;;52.35;24.73;;;8.80;99.90;;;;;;5049399;28;20033;-76
2023/05/16 04:52:49;;;;;;;38.13;19.35;;;8.90;99.90;;;;;;5057129;28;20054;-72
2023/05/16 04:55:15;;;;;;;30.10;16.17;;;8.80;99.90;;;;;;5062584;28;20505;-72
2023/05/16 04:57:41;;;;;;;24.88;12.05;;;8.80;99.90;;;;;;5063201;28;20036;-74
2023/05/16 05:00:09;;;;;;;134.65;13.25;;;8.60;99.90;;;;;;5059155;28;20024;-74
2023/05/16 05:02:35;;;;;;;122.32;13.65;;;8.50;99.90;;;;;;5057966;28;20044;-72
2023/05/16 05:05:00;;;;;;;29.98;12.32;;;8.50;99.90;;;;;;5051550;28;20067;-73
2023/05/16 05:07:28;;;;;;;30.00;14.02;;;8.50;99.90;;;;;;5063786;28;20060;-73
2023/05/16 05:09:54;;;;;;;123.15;17.05;;;8.50;99.90;;;;;;5066693;28;20033;-71
2023/05/16 05:12:21;;;;;;;93.78;17.27;;;8.60;99.90;;;;;;5058649;28;20786;-72
2023/05/16 05:14:46;;;;;;;224.13;19.88;;;8.50;99.90;;;;;;5066938;28;20503;-71
2023/05/16 05:17:12;;;;;;;37.92;18.35;;;8.60;99.90;;;;;;5067013;28;20020;-74
2023/05/16 05:19:38;;;;;;;37.17;17.95;;;8.60;99.90;;;;;;5059019;28;20099;-73
2023/05/16 05:22:03;;;;;;;37.97;18.70;;;8.80;99.90;;;;;;5055943;28;20056;-72
2023/05/16 05:24:29;;;;;;;39.70;18.10;;;8.90;99.90;;;;;;5063428;28;20029;-73
2023/05/16 05:26:55;;;;;;;39.88;19.55;;;9.00;99.90;;;;;;5064597;28;20794;-73
2023/05/16 05:29:21;;;;;;;38.08;19.35;;;9.20;99.90;;;;;;5058080;28;20036;-73
2023/05/16 05:31:47;;;;;;;42.88;20.65;;;9.30;99.90;;;;;;5058921;28;20036;-73
2023/05/16 05:34:12;;;;;;;44.38;22.52;;;9.50;99.90;;;;;;5059009;28;20037;-73
2023/05/16 05:36:38;;;;;;;41.13;20.20;;;9.60;99.90;;;;;;5054876;28;20052;-71
2023/05/16 05:39:04;;;;;;;43.92;20.75;;;9.80;99.90;;;;;;5057133;28;20397;-71
2023/05/16 05:41:29;;;;;;;38.38;19.05;;;9.80;99.90;;;;;;5057156;28;20043;-73
2023/05/16 05:43:55;;;;;;;39.95;20.17;;;9.80;99.90;;;;;;5056350;28;20037;-75
2023/05/16 05:46:21;;;;;;;39.88;20.80;;;9.80;99.90;;;;;;5064028;28;20098;-75
2023/05/16 05:48:47;;;;;;;42.17;21.38;;;9.80;99.90;;;;;;5061361;28;20066;-71
2023/05/16 05:51:13;;;;;;;43.10;21.77;;;9.80;99.90;;;;;;5053907;28;20056;-72
2023/05/16 05:53:39;;;;;;;43.65;21.85;;;9.90;99.90;;;;;;5066744;28;20107;-73
2023/05/16 05:56:05;;;;;;;42.45;21.67;;;9.90;99.90;;;;;;5063587;28;20047;-72
2023/05/16 05:58:31;;;;;;;45.40;22.38;;;9.90;99.90;;;;;;5061633;28;20025;-72
2023/05/16 06:00:56;;;;;;;48.63;23.70;;;9.90;99.90;;;;;;5058065;28;20452;-73
2023/05/16 06:03:22;;;;;;;44.67;22.88;;;10.00;99.90;;;;;;5053040;28;20472;-71
2023/05/16 06:05:48;;;;;;;49.50;23.13;;;10.00;99.90;;;;;;5058264;28;20037;-72
2023/05/16 06:08:13;;;;;;;50.85;23.73;;;10.00;99.90;;;;;;5056389;28;20028;-71
2023/05/16 06:10:39;;;;;;;46.42;23.67;;;10.00;99.90;;;;;;5057149;28;20033;-71
2023/05/16 06:13:05;;;;;;;48.90;23.92;;;10.10;99.90;;;;;;5057947;28;20058;-73
2023/05/16 06:15:30;;;;;;;48.70;23.38;;;10.20;99.90;;;;;;5059795;28;20808;-72
2023/05/16 06:17:56;;;;;;;47.58;23.70;;;10.20;99.90;;;;;;5059453;28;20029;-73
2023/05/16 06:20:22;;;;;;;48.80;23.45;;;10.20;99.90;;;;;;5061405;28;20034;-75
2023/05/16 06:22:48;;;;;;;43.88;23.75;;;10.20;99.90;;;;;;5057861;28;20033;-76
2023/05/16 06:25:14;;;;;;;56.50;25.48;;;10.30;99.90;;;;;;5052065;28;20120;-73
2023/05/16 06:27:39;;;;;;;49.55;24.20;;;10.40;99.90;;;;;;5057085;28;20068;-73
2023/05/16 06:30:05;;;;;;;51.53;24.80;;;10.50;99.90;;;;;;5061164;28;20063;-71
2023/05/16 06:32:31;;;;;;;47.85;24.17;;;10.50;99.90;;;;;;5048905;28;20482;-71
2023/05/16 06:34:57;;;;;;;50.10;24.35;;;10.60;99.90;;;;;;5054717;28;20039;-76
2023/05/16 06:37:23;;;;;;;47.63;24.98;;;10.80;99.90;;;;;;5053517;28;20082;-73
2023/05/16 06:39:49;;;;;;;49.78;24.40;;;10.80;99.90;;;;;;5058676;28;20043;-72
2023/05/16 06:42:14;;;;;;;51.33;25.40;;;10.90;99.90;;;;;;5065693;28;20032;-78
2023/05/16 06:44:40;;;;;;;45.08;22.92;;;11.00;99.90;;;;;;5064640;28;20040;-76
2023/05/16 06:47:06;;;;;;;49.65;23.48;;;11.10;99.90;;;;;;5052014;28;20044;-75
2023/05/16 06:49:32;;;;;;;43.42;23.25;;;11.30;99.90;;;;;;5061050;28;20024;-73
2023/05/16 06:51:58;;;;;;;45.40;24.20;;;11.50;99.90;;;;;;5067344;28;20032;-73
2023/05/16 06:54:24;;;;;;;47.00;23.80;;;11.60;99.90;;;;;;5063522;28;20036;-74
2023/05/16 06:56:49;;;;;;;42.65;22.23;;;11.60;99.90;;;;;;5067924;28;20661;-76
2023/05/16 06:59:15;;;;;;;51.28;23.73;;;11.70;99.90;;;;;;5061258;28;20055;-72
2023/05/16 07:01:41;;;;;;;44.22;23.08;;;11.70;99.90;;;;;;5061451;28;20057;-71
2023/05/16 07:04:07;;;;;;;43.67;22.50;;;11.80;99.90;;;;;;5065778;28;20051;-77
2023/05/16 07:06:32;;;;;;;41.35;22.40;;;11.90;99.90;;;;;;5066317;28;20115;-77
2023/05/16 07:08:58;;;;;;;39.88;21.00;;;12.00;99.90;;;;;;5067066;28;20074;-78
2023/05/16 07:11:24;;;;;;;42.92;22.70;;;12.10;99.90;;;;;;5055092;28;20025;-79
2023/05/16 07:13:49;;;;;;;43.65;22.35;;;12.10;99.90;;;;;;5066647;28;20096;-72
2023/05/16 07:16:15;;;;;;;45.17;21.58;;;12.20;99.90;;;;;;5060999;28;20033;-72
2023/05/16 07:18:41;;;;;;;46.15;21.58;;;12.20;99.90;;;;;;5065029;28;20125;-74
2023/05/16 07:21:07;;;;;;;42.65;21.70;;;12.20;99.90;;;;;;5063012;28;20036;-76
2023/05/16 07:23:32;;;;;;;38.47;20.42;;;12.30;99.90;;;;;;5058819;28;20029;-75
2023/05/16 07:25:58;;;;;;;39.20;20.73;;;12.30;99.90;;;;;;5064889;28;20388;-75
2023/05/16 07:28:24;;;;;;;41.17;20.05;;;12.30;99.90;;;;;;5062990;28;20025;-71
2023/05/16 07:30:49;;;;;;;42.33;22.08;;;12.20;99.90;;;;;;5068857;28;20072;-71
2023/05/16 07:33:15;;;;;;;41.30;21.83;;;12.20;99.90;;;;;;5064675;28;20041;-71
2023/05/16 07:35:41;;;;;;;40.25;20.63;;;12.20;99.90;;;;;;5064239;28;20414;-73
2023/05/16 07:38:07;;;;;;;38.55;20.83;;;12.20;99.90;;;;;;5060238;28;20035;-72
2023/05/16 07:40:32;;;;;;;39.92;21.33;;;12.20;99.90;;;;;;5065104;28;20855;-73
2023/05/16 07:42:58;;;;;;;39.75;21.50;;;12.20;99.90;;;;;;5055817;28;20032;-71
2023/05/16 07:45:24;;;;;;;49.95;21.83;;;12.20;99.90;;;;;;5054674;28;20376;-72
2023/05/16 07:47:49;;;;;;;57.17;22.45;;;12.20;99.90;;;;;;5056118;28;20476;-73
2023/05/16 07:50:15;;;;;;;52.13;21.83;;;12.30;99.90;;;;;;5056786;28;20482;-71
2023/05/16 07:52:41;;;;;;;42.05;21.85;;;12.40;99.90;;;;;;5060632;28;20037;-76
2023/05/16 07:55:07;;;;;;;40.50;20.33;;;12.40;99.90;;;;;;5067880;28;20392;-73
2023/05/16 07:57:32;;;;;;;39.10;20.05;;;12.40;99.90;;;;;;5053989;28;20078;-68
2023/05/16 07:59:58;;;;;;;35.40;19.88;;;12.50;99.90;;;;;;5062131;28;20028;-74
2023/05/16 08:02:25;;;;;;;32.35;18.63;;;12.60;99.90;;;;;;5062236;28;20049;-74
2023/05/16 08:04:50;;;;;;;31.88;17.73;;;12.60;99.90;;;;;;5064470;28;20032;-74
2023/05/16 08:07:16;;;;;;;32.38;18.15;;;12.70;99.90;;;;;;5056080;28;20115;-74
2023/05/16 08:09:42;;;;;;;32.85;18.38;;;12.80;99.90;;;;;;5053764;28;20063;-76
2023/05/16 08:12:08;;;;;;;35.17;18.50;;;12.80;99.90;;;;;;5057881;28;20032;-75
2023/05/16 08:14:34;;;;;;;32.75;18.05;;;12.90;99.90;;;;;;5066403;28;20137;-76
2023/05/16 08:17:00;;;;;;;32.85;18.02;;;13.00;99.90;;;;;;5060429;28;20424;-73
2023/05/16 08:19:25;;;;;;;31.33;17.70;;;13.00;99.90;;;;;;5060557;28;20040;-73
2023/05/16 08:21:51;;;;;;;32.65;17.10;;;13.00;99.90;;;;;;5061933;28;20036;-73
2023/05/16 08:24:17;;;;;;;30.23;16.52;;;12.90;99.90;;;;;;5058158;28;20090;-74
2023/05/16 08:26:42;;;;;;;33.35;17.42;;;12.90;99.90;;;;;;5059913;28;20025;-75
2023/05/16 08:29:08;;;;;;;29.13;17.50;;;12.90;99.90;;;;;;5058073;28;20021;-78
2023/05/16 08:31:34;;;;;;;30.33;17.58;;;12.80;99.90;;;;;;5058571;28;20017;-75
2023/05/16 08:34:00;;;;;;;34.25;17.58;;;12.80;99.90;;;;;;5054558;28;20739;-74
2023/05/16 08:36:27;;;;;;;36.30;17.23;;;12.80;99.90;;;;;;5056993;28;20092;-72
2023/05/16 08:38:53;;;;;;;34.03;17.45;;;12.80;99.90;;;;;;5058259;28;20029;-75
2023/05/16 08:41:20;;;;;;;32.75;18.08;;;12.80;99.90;;;;;;5064890;28;20365;-72
2023/05/16 08:43:46;;;;;;;32.35;16.80;;;12.80;99.90;;;;;;5053963;28;20037;-70
2023/05/16 08:46:12;;;;;;;35.60;16.60;;;12.90;99.90;;;;;;5058211;28;20036;-70
2023/05/16 08:48:39;;;;;;;30.95;16.63;;;12.90;99.90;;;;;;5063259;28;20036;-69
2023/05/16 08:51:07;;;;;;;28.45;16.08;;;13.00;99.90;;;;;;5063716;28;20033;-73
2023/05/16 08:53:43;;;;;;;31.92;16.65;;;13.10;99.90;;;;;;5057570;28;20497;-71
2023/05/16 08:56:10;;;;;;;31.92;17.52;;;13.10;99.90;;;;;;5049780;28;20025;-74
2023/05/16 08:58:36;;;;;;;32.10;16.65;;;13.10;99.90;;;;;;5067517;28;20103;-74
2023/05/16 09:01:07;;;;;;;29.15;16.13;;;13.10;99.90;;;;;;5061457;28;20028;-73
2023/05/16 09:03:37;;;;;;;30.13;16.80;;;13.10;99.90;;;;;;5059015;28;20032;-72
2023/05/16 09:06:06;;;;;;;26.88;15.45;;;13.10;99.90;;;;;;5062912;28;20055;-74
2023/05/16 09:08:32;;;;;;;29.48;15.43;;;13.10;99.90;;;;;;5059659;28;20064;-75
2023/05/16 09:10:58;;;;;;;28.98;16.05;;;13.10;99.90;;;;;;5064044;28;20055;-73
2023/05/16 09:13:24;;;;;;;26.98;15.43;;;13.10;99.90;;;;;;5063740;28;20024;-72
2023/05/16 09:16:08;;;;;;;27.95;15.27;;;13.00;99.90;;;;;;5068480;28;20040;-73
2023/05/16 09:18:35;;;;;;;30.90;14.40;;;13.10;99.90;;;;;;5064491;28;20031;-73
2023/05/16 09:21:01;;;;;;;26.83;14.60;;;13.00;99.90;;;;;;5058495;28;20032;-72
2023/05/16 09:23:27;;;;;;;31.55;15.63;;;13.00;99.90;;;;;;5065383;28;20029;-75
2023/05/16 09:25:53;;;;;;;27.00;15.23;;;13.00;99.90;;;;;;5064086;28;20051;-74
2023/05/16 09:28:18;;;;;;;26.15;14.70;;;13.00;99.90;;;;;;5063807;28;20033;-73
2023/05/16 09:30:45;;;;;;;29.52;16.40;;;13.10;99.90;;;;;;5058784;28;20040;-75
2023/05/16 09:33:11;;;;;;;30.65;15.80;;;13.30;99.90;;;;;;5046807;28;20548;-73
2023/05/16 09:35:37;;;;;;;30.10;16.17;;;13.50;99.90;;;;;;5058292;28;20031;-75
2023/05/16 09:38:03;;;;;;;28.92;15.38;;;13.70;99.90;;;;;;5066414;28;20467;-75
2023/05/16 09:40:29;;;;;;;26.02;13.68;;;13.90;99.90;;;;;;5065815;28;20115;-81
2023/05/16 09:43:05;;;;;;;24.65;13.70;;;14.00;99.90;;;;;;5063739;28;20048;-71
2023/05/16 09:45:32;;;;;;;28.25;15.50;;;14.10;99.90;;;;;;5059226;28;20803;-73
2023/05/16 09:48:04;;;;;;;22.65;13.02;;;14.20;99.90;;;;;;5064648;28;20472;-68
2023/05/16 09:50:33;;;;;;;23.98;14.10;;;14.20;99.90;;;;;;5059687;28;20070;-71
2023/05/16 09:52:58;;;;;;;24.17;13.57;;;14.30;99.90;;;;;;5062448;28;20064;-69
2023/05/16 09:55:24;;;;;;;25.17;13.70;;;14.30;99.90;;;;;;5058986;28;20059;-71
2023/05/16 09:57:50;;;;;;;21.20;13.07;;;14.30;99.90;;;;;;5051335;28;20025;-72
2023/05/16 10:00:16;;;;;;;21.15;11.93;;;14.40;99.90;;;;;;5064757;28;20072;-70
2023/05/16 10:02:42;;;;;;;22.30;13.23;;;14.20;99.90;;;;;;5060076;28;20056;-71
2023/05/16 10:05:08;;;;;;;24.58;12.48;;;13.90;99.90;;;;;;5068297;28;20086;-71
2023/05/16 10:07:34;;;;;;;23.85;13.27;;;13.60;99.90;;;;;;5061674;28;20032;-70
2023/05/16 10:10:05;;;;;;;22.75;12.60;;;13.50;99.90;;;;;;5065927;28;20754;-71
2023/05/16 10:12:31;;;;;;;;;;;13.50;99.90;;;;;;5064077;28;20032;-71
2023/05/16 10:15:01;;;;;;;21.55;12.38;;;13.40;99.90;;;;;;5064906;28;19908;-71
2023/05/16 10:17:31;;;;;;;23.13;12.77;;;13.40;99.90;;;;;;5063914;28;20029;-70
2023/05/16 10:19:58;;;;;;;25.05;13.00;;;13.30;99.90;;;;;;5063559;28;20047;-71
2023/05/16 10:22:25;;;;;;;23.17;12.70;;;13.40;99.90;;;;;;5061037;28;20115;-70
2023/05/16 10:25:03;;;;;;;21.70;12.45;;;13.40;99.90;;;;;;5061466;28;20457;-71
2023/05/16 10:27:29;;;;;;;22.63;12.38;;;13.40;99.90;;;;;;5059531;28;20026;-71
2023/05/16 10:29:57;;;;;;;25.80;13.73;;;13.60;99.90;;;;;;5068464;28;20111;-71
2023/05/16 10:32:26;;;;;;;20.83;12.75;;;13.70;99.90;;;;;;5062119;28;20029;-68
2023/05/16 10:34:54;;;;;;;24.80;12.38;;;13.60;99.90;;;;;;5056980;28;20044;-73
2023/05/16 10:37:21;;;;;;;24.08;12.90;;;13.50;99.90;;;;;;5066497;28;20047;-73
2023/05/16 10:39:47;;;;;;;23.63;13.32;;;13.60;99.90;;;;;;5057914;28;20051;-71
2023/05/16 10:42:17;;;;;;;27.15;14.27;;;13.60;99.90;;;;;;5059587;28;20028;-71
2023/05/16 10:44:42;;;;;;;23.50;13.68;;;13.60;99.90;;;;;;5063997;28;20472;-71
2023/05/16 10:47:08;;;;;;;24.10;12.93;;;13.60;99.90;;;;;;5071805;28;20029;-75
2023/05/16 10:49:34;;;;;;;24.33;14.00;;;13.60;99.90;;;;;;5065748;28;20452;-73
2023/05/16 10:52:08;;;;;;;28.63;14.18;;;13.80;99.90;;;;;;5065579;28;20039;-71
2023/05/16 10:54:50;;;;;;;28.88;14.98;;;13.80;99.90;;;;;;5060370;28;20036;-70
2023/05/16 10:57:20;;;;;;;27.05;13.75;;;13.90;99.90;;;;;;5057933;28;20025;-71
2023/05/16 10:59:48;;;;;;;24.45;12.82;;;14.00;99.90;;;;;;5057460;28;20036;-76
2023/05/16 11:02:41;;;;;;;24.65;14.50;;;14.00;99.90;;;;;;5060534;28;20057;-67
2023/05/16 11:05:12;;;;;;;24.27;13.20;;;14.10;99.90;;;;;;5064112;28;20033;-72
2023/05/16 11:07:38;;;;;;;24.75;12.93;;;14.00;99.90;;;;;;5066933;28;20039;-70
2023/05/16 11:10:09;;;;;;;23.70;13.15;;;14.10;99.90;;;;;;5071309;28;20025;-69
2023/05/16 11:12:44;;;;;;;23.98;13.88;;;14.20;99.90;;;;;;5070605;28;20075;-71
2023/05/16 11:15:27;;;;;;;25.55;14.27;;;14.20;99.90;;;;;;5062777;28;20044;-71
2023/05/16 11:18:05;;;;;;;27.90;13.52;;;14.10;99.90;;;;;;5056166;28;20025;-79
2023/05/16 11:20:33;;;;;;;25.02;14.00;;;14.10;99.90;;;;;;5057685;28;20388;-72
2023/05/16 11:23:20;;;;;;;24.98;13.77;;;14.00;99.90;;;;;;5061638;28;20063;-67
2023/05/16 11:25:57;;;;;;;27.88;15.57;;;14.20;99.90;;;;;;5062204;28;20048;-71
2023/05/16 11:28:26;;;;;;;25.58;14.48;;;14.20;99.90;;;;;;5062900;28;20025;-75
2023/05/16 11:30:56;;;;;;;28.13;14.87;;;14.30;99.90;;;;;;5064012;28;20078;-69
2023/05/16 11:33:23;;;;;;;25.95;14.40;;;14.20;99.90;;;;;;5060448;28;20032;-69
2023/05/16 11:36:01;;;;;;;27.65;14.30;;;14.30;99.90;;;;;;5068919;28;20036;-67
2023/05/16 11:38:30;;;;;;;25.75;14.70;;;14.30;99.90;;;;;;5069794;28;20024;-70
2023/05/16 11:41:02;;;;;;;26.63;14.70;;;14.30;99.90;;;;;;5069637;28;20040;-71
2023/05/16 11:43:28;;;;;;;34.33;16.35;;;14.20;99.90;;;;;;5064366;28;20078;-71
2023/05/16 11:45:55;;;;;;;27.42;16.20;;;14.30;99.90;;;;;;5067029;28;20036;-68
2023/05/16 11:48:24;;;;;;;23.35;13.30;;;14.30;99.90;;;;;;5061613;28;20024;-69
2023/05/16 11:50:49;;;;;;;24.02;13.30;;;14.30;99.90;;;;;;5064544;28;20039;-67
2023/05/16 11:53:16;;;;;;;31.45;14.35;;;14.50;99.90;;;;;;5067799;28;20024;-70
2023/05/16 11:55:41;;;;;;;22.25;12.57;;;14.80;99.90;;;;;;5061015;28;20039;-72
2023/05/16 11:58:07;;;;;;;25.48;13.02;;;14.90;99.90;;;;;;5061151;28;20029;-73
2023/05/16 12:00:33;;;;;;;19.70;12.45;;;15.00;99.90;;;;;;5060587;28;20029;-71
2023/05/16 12:03:03;;;;;;;22.73;12.75;;;14.90;99.90;;;;;;5056315;28;20076;-71
2023/05/16 12:05:31;;;;;;;;;;;14.90;99.90;;;;;;5065478;28;20039;-74
2023/05/16 12:07:58;;;;;;;20.80;11.95;;;14.90;99.90;;;;;;5070490;28;20284;-74
2023/05/16 12:10:24;;;;;;;22.38;11.82;;;14.90;99.90;;;;;;5070149;28;20048;-73
2023/05/16 12:12:52;;;;;;;20.65;11.95;;;14.80;99.90;;;;;;5052974;28;20449;-71
2023/05/16 12:15:18;;;;;;;19.58;11.68;;;14.80;99.90;;;;;;5063212;28;20420;-71
2023/05/16 12:17:45;;;;;;;26.27;12.05;;;14.70;99.90;;;;;;5063780;28;20051;-71
2023/05/16 12:20:13;;;;;;;19.90;11.18;;;14.70;99.90;;;;;;5062075;28;20067;-71
2023/05/16 12:22:43;;;;;;;20.27;11.50;;;14.70;99.90;;;;;;5058028;28;20040;-68
2023/05/16 12:25:29;;;;;;;19.58;11.20;;;14.70;99.90;;;;;;5065749;28;20116;-74
2023/05/16 12:27:57;;;;;;;21.60;11.88;;;14.60;99.90;;;;;;5048870;28;20079;-73
2023/05/16 12:30:26;;;;;;;18.88;10.82;;;14.50;99.90;;;;;;5049857;28;20079;-77
2023/05/16 12:33:02;;;;;;;23.80;12.23;;;14.30;99.90;;;;;;5065139;28;20052;-73
2023/05/16 12:35:33;;;;;;;48.13;14.20;;;14.30;99.90;;;;;;5048016;28;20060;-76